createdAt,value
2023-12-03T00:01:21.695Z,11.43
2023-12-03T00:04:23.991Z,11.50
2023-12-03T00:07:26.411Z,10.77
2023-12-03T00:10:28.481Z,10.90
2023-12-03T00:13:30.837Z,11.82
2023-12-03T00:16:32.767Z,11.57
2023-12-03T00:19:34.810Z,11.75
2023-12-03T00:22:36.953Z,12.68
2023-12-03T00:25:39.189Z,11.90
2023-12-03T00:28:41.177Z,11.35
2023-12-03T00:31:43.251Z,10.93
2023-12-03T00:34:45.246Z,12.20
2023-12-03T00:37:47.218Z,10.90
2023-12-03T00:40:49.216Z,10.68
2023-12-03T00:43:51.344Z,11.48
2023-12-03T00:46:53.436Z,11.18
2023-12-03T00:49:55.408Z,11.52
2023-12-03T00:52:57.652Z,11.75
2023-12-03T00:55:59.694Z,11.32
2023-12-03T00:59:01.778Z,11.00
2023-12-03T01:02:03.830Z,11.05
2023-12-03T01:05:06.095Z,11.98
2023-12-03T01:08:08.113Z,11.93
2023-12-03T01:11:11.217Z,11.88
2023-12-03T01:14:13.220Z,10.93
2023-12-03T01:17:15.330Z,11.35
2023-12-03T01:20:17.932Z,10.70
2023-12-03T01:23:20.123Z,11.73
2023-12-03T01:26:22.147Z,11.95
2023-12-03T01:29:24.184Z,11.52
2023-12-03T01:32:26.156Z,12.13
2023-12-03T01:35:28.196Z,12.88
2023-12-03T01:38:30.603Z,12.32
2023-12-03T01:41:33.738Z,12.60
2023-12-03T01:44:36.476Z,12.65
2023-12-03T01:47:39.464Z,12.10
2023-12-03T01:50:42.394Z,11.48
2023-12-03T01:53:45.055Z,10.82
2023-12-03T01:56:48.989Z,10.60
2023-12-03T01:59:50.896Z,8.57
2023-12-03T02:02:52.929Z,7.97
2023-12-03T02:06:06.180Z,7.82
2023-12-03T02:09:08.696Z,7.30
2023-12-03T02:12:10.718Z,7.88
2023-12-03T02:15:12.803Z,7.50
2023-12-03T02:18:15.523Z,7.78
2023-12-03T02:21:17.529Z,8.63
2023-12-03T02:24:19.504Z,8.43
2023-12-03T02:27:21.528Z,7.68
2023-12-03T02:30:23.864Z,8.25
2023-12-03T02:33:26.039Z,7.03
2023-12-03T02:36:28.231Z,7.60
2023-12-03T02:39:30.146Z,7.35
2023-12-03T02:42:32.839Z,7.60
2023-12-03T02:45:34.858Z,7.18
2023-12-03T02:48:36.951Z,8.07
2023-12-03T02:51:39.030Z,7.00
2023-12-03T02:54:41.022Z,7.03
2023-12-03T02:57:43.175Z,7.65
2023-12-03T03:00:45.147Z,7.15
2023-12-03T03:03:47.280Z,7.10
2023-12-03T03:06:49.749Z,7.35
2023-12-03T03:09:51.772Z,6.50
2023-12-03T03:12:53.945Z,7.03
2023-12-03T03:15:55.920Z,6.70
2023-12-03T03:18:58.067Z,6.93
2023-12-03T03:22:00.216Z,7.22
2023-12-03T03:25:02.191Z,7.00
2023-12-03T03:28:04.347Z,7.75
2023-12-03T03:31:06.592Z,7.93
2023-12-03T03:34:08.928Z,7.70
2023-12-03T03:37:11.078Z,8.48
2023-12-03T03:40:13.430Z,9.02
2023-12-03T03:43:15.744Z,8.50
2023-12-03T03:46:17.776Z,9.45
2023-12-03T03:49:19.815Z,9.02
2023-12-03T03:52:21.951Z,8.73
2023-12-03T03:55:23.873Z,9.07
2023-12-03T03:58:26.408Z,8.77
2023-12-03T04:01:28.341Z,8.95
2023-12-03T04:04:30.398Z,9.50
2023-12-03T04:07:32.530Z,10.00
2023-12-03T04:10:34.618Z,9.93
2023-12-03T04:13:37.528Z,9.45
2023-12-03T04:16:40.422Z,9.07
2023-12-03T04:19:42.447Z,9.23
2023-12-03T04:22:44.389Z,9.65
2023-12-03T04:25:46.390Z,9.43
2023-12-03T04:28:48.375Z,9.75
2023-12-03T04:31:50.542Z,9.55
2023-12-03T04:34:52.551Z,9.70
2023-12-03T04:37:54.568Z,9.32
2023-12-03T04:40:56.497Z,9.25
2023-12-03T04:43:58.430Z,8.93
2023-12-03T04:47:00.294Z,8.93
2023-12-03T04:50:02.284Z,8.82
2023-12-03T04:53:04.152Z,9.68
2023-12-03T04:56:06.749Z,9.00
2023-12-03T04:59:08.776Z,8.15
2023-12-03T05:02:10.794Z,8.65
2023-12-03T05:05:12.838Z,8.55
2023-12-03T05:08:14.779Z,9.32
2023-12-03T05:11:16.730Z,9.15
2023-12-03T05:14:18.666Z,8.30
2023-12-03T05:17:20.622Z,8.13
2023-12-03T05:20:22.619Z,8.38
2023-12-03T05:23:25.780Z,7.72
2023-12-03T05:26:27.734Z,8.15
2023-12-03T05:29:29.624Z,7.68
2023-12-03T05:32:31.772Z,7.78
2023-12-03T05:35:34.322Z,8.48
2023-12-03T05:38:39.157Z,7.68
2023-12-03T05:41:41.330Z,7.15
2023-12-03T05:44:43.401Z,7.95
2023-12-03T05:47:45.499Z,7.93
2023-12-03T05:50:47.473Z,7.53
2023-12-03T05:53:49.390Z,7.30
2023-12-03T05:56:51.384Z,7.35
2023-12-03T05:59:55.067Z,7.28
2023-12-03T06:03:00.421Z,7.75
2023-12-03T06:06:02.493Z,7.22
2023-12-03T06:09:05.973Z,7.90
2023-12-03T06:12:08.263Z,7.57
2023-12-03T06:15:10.701Z,7.47
2023-12-03T06:18:12.648Z,7.65
2023-12-03T06:21:14.661Z,6.90
2023-12-03T06:24:17.296Z,6.97
2023-12-03T06:27:19.288Z,7.82
2023-12-03T06:30:21.337Z,6.90
2023-12-03T06:33:24.158Z,7.22
2023-12-03T06:36:29.406Z,8.55
2023-12-03T06:39:31.553Z,10.07
2023-12-03T06:42:33.744Z,9.20
2023-12-03T06:45:36.060Z,8.73
2023-12-03T06:48:38.155Z,8.35
2023-12-03T06:51:40.158Z,9.75
2023-12-03T06:54:42.119Z,8.80
2023-12-03T06:57:44.178Z,8.27
2023-12-03T07:00:46.246Z,7.25
2023-12-03T07:03:48.340Z,7.68
2023-12-03T07:06:50.416Z,7.30
2023-12-03T07:09:53.927Z,7.72
2023-12-03T07:12:56.071Z,7.45
2023-12-03T07:15:58.689Z,7.40
2023-12-03T07:19:00.884Z,6.80
2023-12-03T07:22:02.889Z,6.63
2023-12-03T07:25:05.171Z,6.82
2023-12-03T07:28:07.311Z,6.93
2023-12-03T07:31:09.709Z,7.25
2023-12-03T07:34:12.039Z,7.57
2023-12-03T07:37:14.088Z,8.38
2023-12-03T07:40:16.120Z,9.55
2023-12-03T07:43:18.154Z,9.95
2023-12-03T07:46:20.233Z,9.38
2023-12-03T07:49:22.323Z,9.00
2023-12-03T07:52:24.255Z,9.23
2023-12-03T07:55:26.334Z,9.05
2023-12-03T07:58:29.046Z,8.43
2023-12-03T08:01:31.205Z,7.97
2023-12-03T08:04:33.393Z,8.50
2023-12-03T08:07:35.506Z,7.80
2023-12-03T08:10:37.629Z,8.98
2023-12-03T08:13:39.631Z,7.72
2023-12-03T08:16:41.545Z,7.88
2023-12-03T08:19:43.651Z,7.80
2023-12-03T08:22:45.804Z,8.10
2023-12-03T08:25:47.789Z,7.93
2023-12-03T08:28:49.781Z,8.05
2023-12-03T08:31:51.841Z,7.93
2023-12-03T08:34:54.553Z,7.50
2023-12-03T08:37:56.560Z,8.00
2023-12-03T08:40:58.640Z,9.07
2023-12-03T08:44:00.583Z,8.35
2023-12-03T08:47:02.691Z,9.07
2023-12-03T08:50:05.874Z,9.60
2023-12-03T08:53:08.635Z,9.52
2023-12-03T08:56:13.934Z,9.88
2023-12-03T08:59:15.856Z,8.80
2023-12-03T09:02:17.781Z,9.75
2023-12-03T09:05:19.810Z,9.60
2023-12-03T09:08:21.785Z,9.77
2023-12-03T09:11:24.579Z,10.27
2023-12-03T09:14:27.310Z,10.00
2023-12-03T09:17:29.346Z,10.15
2023-12-03T09:20:31.421Z,9.95
2023-12-03T09:23:35.128Z,10.20
2023-12-03T09:26:37.067Z,10.00
2023-12-03T09:29:38.992Z,9.57
2023-12-03T09:32:41.672Z,9.98
2023-12-03T09:35:43.732Z,9.55
2023-12-03T09:38:45.633Z,10.38
2023-12-03T09:41:52.646Z,9.77
2023-12-03T09:45:02.721Z,10.15
2023-12-03T09:48:07.162Z,8.88
2023-12-03T09:51:12.378Z,9.15
2023-12-03T09:54:14.380Z,10.00
2023-12-03T09:57:17.115Z,10.57
2023-12-03T10:00:20.513Z,9.40
2023-12-03T10:03:22.482Z,11.07
2023-12-03T10:06:26.295Z,10.00
2023-12-03T10:09:29.266Z,10.45
2023-12-03T10:12:42.245Z,11.27
2023-12-03T10:15:45.474Z,10.32
2023-12-03T10:18:47.486Z,10.00
2023-12-03T10:21:53.357Z,11.40
2023-12-03T10:24:55.535Z,11.18
2023-12-03T10:27:59.667Z,11.32
2023-12-03T10:31:01.978Z,12.38
2023-12-03T10:34:04.483Z,11.90
2023-12-03T10:37:06.584Z,11.18
2023-12-03T10:40:08.757Z,12.52
2023-12-03T10:43:12.841Z,13.18
2023-12-03T10:46:16.555Z,13.10
2023-12-03T10:49:21.698Z,13.57
2023-12-03T10:52:23.989Z,13.13
2023-12-03T10:55:25.864Z,12.75
2023-12-03T10:58:27.875Z,13.32
2023-12-03T11:01:31.798Z,13.90
2023-12-03T11:04:39.304Z,13.52
2023-12-03T11:07:42.724Z,13.88
2023-12-03T11:10:46.009Z,13.05
2023-12-03T11:13:52.198Z,14.20
2023-12-03T11:17:33.769Z,14.23
2023-12-03T11:20:38.623Z,13.90
2023-12-03T11:23:49.720Z,13.85
2023-12-03T11:26:51.732Z,14.18
2023-12-03T11:29:55.621Z,14.48
2023-12-03T11:32:58.532Z,13.23
2023-12-03T11:36:01.778Z,14.80
2023-12-03T11:39:04.957Z,14.02
2023-12-03T11:42:08.188Z,15.20
2023-12-03T11:45:29.656Z,14.38
2023-12-03T11:48:32.923Z,13.82
2023-12-03T11:51:35.726Z,14.18
2023-12-03T11:54:58.115Z,13.65
2023-12-03T11:58:00.113Z,13.25
2023-12-03T12:01:02.183Z,14.40
2023-12-03T12:04:04.583Z,14.35
2023-12-03T12:07:35.962Z,14.38
2023-12-03T12:10:37.981Z,14.27
2023-12-03T12:13:39.921Z,13.60
2023-12-03T12:16:42.007Z,15.15
2023-12-03T12:19:48.504Z,14.95
2023-12-03T12:22:52.057Z,13.20
2023-12-03T12:25:54.697Z,13.88
2023-12-03T12:28:56.658Z,15.25
2023-12-03T12:32:00.603Z,14.40
2023-12-03T12:35:04.044Z,13.77
2023-12-03T12:38:08.207Z,13.68
2023-12-03T12:41:12.094Z,13.10
2023-12-03T12:44:14.149Z,11.57
2023-12-03T12:47:20.033Z,11.77
2023-12-03T12:50:36.265Z,12.35
2023-12-03T12:53:58.214Z,12.75
2023-12-03T12:57:00.125Z,12.07
2023-12-03T13:00:02.192Z,12.93
2023-12-03T13:03:04.371Z,13.05
2023-12-03T13:06:07.065Z,12.15
2023-12-03T13:09:10.119Z,12.27
2023-12-03T13:12:12.177Z,13.27
2023-12-03T13:15:14.217Z,12.90
2023-12-03T13:18:22.626Z,13.90
2023-12-03T13:21:27.719Z,13.15
2023-12-03T13:24:29.973Z,14.13
2023-12-03T13:27:31.909Z,12.73
2023-12-03T13:30:33.939Z,13.73
2023-12-03T13:33:36.482Z,13.48
2023-12-03T13:36:39.100Z,13.57
2023-12-03T13:39:41.409Z,12.55
2023-12-03T13:42:53.344Z,12.70
2023-12-03T13:45:55.350Z,12.25
2023-12-03T13:48:57.597Z,9.85
2023-12-03T13:51:59.797Z,8.40
2023-12-03T13:55:01.982Z,7.80
2023-12-03T13:58:04.488Z,6.45
2023-12-03T14:01:06.702Z,6.45
2023-12-03T14:04:08.716Z,7.30
2023-12-03T14:07:10.753Z,6.93
2023-12-03T14:10:12.924Z,6.80
2023-12-03T14:13:14.848Z,6.90
2023-12-03T14:16:16.825Z,6.72
2023-12-03T14:19:18.793Z,6.90
2023-12-03T14:22:20.736Z,7.90
2023-12-03T14:25:26.959Z,7.47
2023-12-03T14:28:28.931Z,7.10
2023-12-03T14:31:34.610Z,7.43
2023-12-03T14:34:37.230Z,7.57
2023-12-03T14:37:39.210Z,7.10
2023-12-03T14:40:41.460Z,7.15
2023-12-03T14:43:43.392Z,7.53
2023-12-03T14:46:45.344Z,7.75
2023-12-03T14:49:47.401Z,7.65
2023-12-03T14:52:50.075Z,6.60
2023-12-03T14:55:52.512Z,7.28
2023-12-03T14:58:55.914Z,11.20
2023-12-03T15:01:58.990Z,9.88
2023-12-03T15:05:05.313Z,7.72
2023-12-03T15:08:07.827Z,7.85
2023-12-03T15:11:13.050Z,7.72
2023-12-03T15:14:15.044Z,8.52
2023-12-03T15:17:17.062Z,9.45
2023-12-03T15:20:19.708Z,8.88
2023-12-03T15:23:21.653Z,9.50
2023-12-03T15:26:23.696Z,10.05
2023-12-03T15:29:26.303Z,9.82
2023-12-03T15:32:30.625Z,12.63
2023-12-03T15:35:32.661Z,9.00
2023-12-03T15:38:35.385Z,6.97
2023-12-03T15:41:37.363Z,7.75
2023-12-03T15:44:39.773Z,7.57
2023-12-03T15:47:41.829Z,9.60
2023-12-03T15:50:44.042Z,10.18
2023-12-03T15:53:46.014Z,8.98
2023-12-03T15:56:48.060Z,10.38
2023-12-03T15:59:50.132Z,9.73
2023-12-03T16:02:53.530Z,10.52
2023-12-03T16:05:55.669Z,10.20
2023-12-03T16:09:00.610Z,10.73
2023-12-03T16:12:02.707Z,10.55
2023-12-03T16:15:05.273Z,10.90
2023-12-03T16:18:07.411Z,10.48
2023-12-03T16:21:09.680Z,10.98
2023-12-03T16:24:13.178Z,11.00
2023-12-03T16:27:15.221Z,11.27
2023-12-03T16:30:17.943Z,10.82
2023-12-03T16:33:19.970Z,10.05
2023-12-03T16:36:22.052Z,10.50
2023-12-03T16:39:24.636Z,11.75
2023-12-03T16:42:28.183Z,16.88
2023-12-03T16:45:31.330Z,14.57
2023-12-03T16:48:33.613Z,13.25
2023-12-03T16:51:37.340Z,13.60
2023-12-03T16:54:41.528Z,12.40
2023-12-03T16:57:43.516Z,12.57
2023-12-03T17:00:45.534Z,12.25
2023-12-03T17:03:47.594Z,11.77
2023-12-03T17:06:49.598Z,12.45
2023-12-03T17:09:51.580Z,12.52
2023-12-03T17:12:58.562Z,12.68
2023-12-03T17:16:01.011Z,11.45
2023-12-03T17:19:03.248Z,12.32
2023-12-03T17:22:05.268Z,13.52
2023-12-03T17:25:07.592Z,12.27
2023-12-03T17:28:09.703Z,15.77
2023-12-03T17:31:11.728Z,13.20
2023-12-03T17:34:13.948Z,14.00
2023-12-03T17:37:16.822Z,13.50
2023-12-03T17:40:20.912Z,12.70
2023-12-03T17:43:24.264Z,12.48
2023-12-03T17:46:26.673Z,12.45
2023-12-03T17:49:28.903Z,11.73
2023-12-03T17:52:31.089Z,12.55
2023-12-03T17:55:33.006Z,11.63
2023-12-03T17:58:35.593Z,10.82
2023-12-03T18:01:38.788Z,10.90
2023-12-03T18:04:40.931Z,10.73
2023-12-03T18:07:42.942Z,11.45
2023-12-03T18:10:46.568Z,10.88
2023-12-03T18:13:48.808Z,10.00
2023-12-03T18:16:50.739Z,9.85
2023-12-03T18:19:53.265Z,9.18
2023-12-03T18:22:55.884Z,9.10
2023-12-03T18:25:58.392Z,10.32
2023-12-03T18:29:00.903Z,13.25
2023-12-03T18:32:03.009Z,11.73
2023-12-03T18:35:05.400Z,10.50
2023-12-03T18:38:07.434Z,10.73
2023-12-03T18:41:09.358Z,11.40
2023-12-03T18:44:11.594Z,11.25
2023-12-03T18:47:13.561Z,11.32
2023-12-03T18:50:15.522Z,12.27
2023-12-03T18:53:17.434Z,13.02
2023-12-03T18:56:19.458Z,13.18
2023-12-03T18:59:22.364Z,12.95
2023-12-03T19:02:24.613Z,12.40
2023-12-03T19:05:26.937Z,12.95
2023-12-03T19:08:33.393Z,11.73
2023-12-03T19:11:37.874Z,13.85
2023-12-03T19:14:39.875Z,13.70
2023-12-03T19:17:43.442Z,14.38
2023-12-03T19:20:45.432Z,14.50
2023-12-03T19:23:47.388Z,14.02
2023-12-03T19:26:49.366Z,15.80
2023-12-03T19:29:51.620Z,15.88
2023-12-03T19:32:53.568Z,13.65
2023-12-03T19:35:55.663Z,13.68
2023-12-03T19:38:57.612Z,14.52
2023-12-03T19:41:59.589Z,14.18
2023-12-03T19:45:01.513Z,13.55
2023-12-03T19:48:03.616Z,14.48
2023-12-03T19:51:06.125Z,15.57
2023-12-03T19:54:08.044Z,15.82
2023-12-03T19:57:10.200Z,12.95
2023-12-03T20:00:12.891Z,14.57
2023-12-03T20:03:14.902Z,13.20
2023-12-03T20:06:16.877Z,10.88
2023-12-03T20:09:19.000Z,10.18
2023-12-03T20:12:21.007Z,10.55
2023-12-03T20:15:28.302Z,9.93
2023-12-03T20:18:35.249Z,10.02
2023-12-03T20:21:39.220Z,11.32
2023-12-03T20:24:41.147Z,12.07
2023-12-03T20:27:43.110Z,13.05
2023-12-03T20:30:45.252Z,12.45
2023-12-03T20:33:47.862Z,10.75
2023-12-03T20:36:49.935Z,10.05
2023-12-03T20:39:53.286Z,9.52
2023-12-03T20:42:56.528Z,8.75
2023-12-03T20:45:58.648Z,9.38
2023-12-03T20:49:00.752Z,9.32
2023-12-03T20:52:02.941Z,8.85
2023-12-03T20:55:05.339Z,8.88
2023-12-03T20:58:07.487Z,8.90
2023-12-03T21:01:12.302Z,8.77
2023-12-03T21:04:14.254Z,8.13
2023-12-03T21:07:16.342Z,9.13
2023-12-03T21:10:19.562Z,10.90
2023-12-03T21:13:21.677Z,12.38
2023-12-03T21:16:23.537Z,12.63
2023-12-03T21:19:25.546Z,12.07
2023-12-03T21:22:27.538Z,11.73
2023-12-03T21:25:34.180Z,11.13
2023-12-03T21:28:36.197Z,10.27
2023-12-03T21:31:38.661Z,12.10
2023-12-03T21:34:40.693Z,11.43
2023-12-03T21:37:45.165Z,10.82
2023-12-03T21:40:47.151Z,10.00
2023-12-03T21:43:49.120Z,10.60
2023-12-03T21:46:51.123Z,11.55
2023-12-03T21:49:53.234Z,12.63
2023-12-03T21:52:55.658Z,13.13
2023-12-03T21:55:57.604Z,13.15
2023-12-03T21:58:59.579Z,10.98
2023-12-03T22:02:01.495Z,11.30
2023-12-03T22:05:03.746Z,11.15
2023-12-03T22:08:05.710Z,11.27
2023-12-03T22:11:08.011Z,11.57
2023-12-03T22:14:09.994Z,11.25
2023-12-03T22:17:11.932Z,11.65
2023-12-03T22:20:14.243Z,12.30
2023-12-03T22:23:16.241Z,12.32
2023-12-03T22:26:18.192Z,10.65
2023-12-03T22:29:26.390Z,10.50
2023-12-03T22:32:37.011Z,11.10
2023-12-03T22:35:40.202Z,11.07
2023-12-03T22:38:42.905Z,11.25
2023-12-03T22:41:45.195Z,11.30
2023-12-03T22:44:47.239Z,11.80
2023-12-03T22:47:49.214Z,13.00
2023-12-03T22:50:51.284Z,11.93
2023-12-03T22:53:53.184Z,11.27
2023-12-03T22:56:55.204Z,10.77
2023-12-03T22:59:57.138Z,12.13
2023-12-03T23:02:59.637Z,11.25
2023-12-03T23:06:01.675Z,10.38
2023-12-03T23:09:03.873Z,10.57
2023-12-03T23:12:06.017Z,9.48
2023-12-03T23:15:09.333Z,9.98
2023-12-03T23:18:11.609Z,9.57
2023-12-03T23:21:13.537Z,10.52
2023-12-03T23:24:15.477Z,9.52
2023-12-03T23:27:19.955Z,10.10
2023-12-03T23:30:22.390Z,8.77
2023-12-03T23:33:24.459Z,9.68
2023-12-03T23:36:27.121Z,10.25
2023-12-03T23:39:29.516Z,10.23
2023-12-03T23:42:32.585Z,12.15
2023-12-03T23:45:35.510Z,11.25
2023-12-03T23:48:39.356Z,11.45
2023-12-03T23:51:41.418Z,11.05
2023-12-03T23:54:43.349Z,11.10
2023-12-03T23:57:46.130Z,10.95
